SGF weather

Springfield Branson National Airport
Springfield, Missouri, United States

Public forecast

Using degrees Fahrenheit for public forecast. Weather courtesy of forecast.io.

Current aviation weather report (METAR) for Springfield Branson National Airport

Retrieved 2019/12/12 22:52 UTC (54 minutes ago):

KSGF 122252Z 17006KT 10SM CLR 09/M08 A3006 RMK AO2 SLP183 T00891078

Aviation forecast (TAF) for Springfield Branson National Airport

Retrieved 2019/12/12 18:00 UTC (6 hours ago):

TAF COR KSGF 121757Z 1218/1318 18015G25KT P6SM SCT150 FM122300 18008KT P6SM FEW250 FM130700 17008KT P6SM BKN250